»·PEaware :: UAL264 KABQ-KPHX

UAL264 :: KABQ-KPHX

FLIGHT INFORMATION

Flight Status: Arrived
Operator:
United Airlines
More flights by this operator :: More flights under this callsign
Pilot: Sanjiv S. (4490)
Aircraft: AIRBUS A320
(A320)
More flights by this aircraft type
Origin: KABQ Albuquerque Intl Sunport
United States
Destination: KPHX Phoenix Sky Harbor Intl
United States
More flights between these airports :: More routes between these airports
Route: RDRNR3 ZUN EAGUL6
File this flight plan on PilotEdge
Remarks:
Altitude:
(Current/Filed)
36,000ft
Speed:
(Current/Filed)
440kts
Departed: 26-Dec-17 09:34 AM
Arrived: 26-Dec-17 10:42 AM
Distance/Time
Traveled:
285nm/1:08
Distance/Time
To Go:
Arrived

Flight Plot

Page will automatically refresh every two minutes.


Map Options




Map Legend


Flown Route
Filed Route
Departure Airport
Arrival Airport
Navaid (VOR, NDB)
Fix

Horizontal Profiles

Position Reports

Time Latitude Longitude Heading Altitude Ground
Speed
26-Dec-17 09:16 35.046926 -106.616395 12 5324ft 0kts
26-Dec-17 09:17 35.046926 -106.616395 12 5324ft 0kts
26-Dec-17 09:18 35.046926 -106.616395 12 5324ft 0kts
26-Dec-17 09:19 35.046926 -106.616395 12 5324ft 0kts
26-Dec-17 09:20 35.046926 -106.616395 12 5324ft 0kts
26-Dec-17 09:21 35.046926 -106.616395 12 5324ft 0kts
26-Dec-17 09:22 35.046926 -106.616395 12 5324ft 0kts
26-Dec-17 09:23 35.046926 -106.616395 12 5324ft 0kts
26-Dec-17 09:24 35.046926 -106.616395 12 5324ft 0kts
26-Dec-17 09:25 35.046926 -106.616395 12 5324ft 0kts
26-Dec-17 09:26 35.046926 -106.616395 12 5324ft 0kts
26-Dec-17 09:27 35.046926 -106.616395 12 5324ft 0kts
26-Dec-17 09:28 35.046879 -106.616408 12 5324ft 2kts
26-Dec-17 09:29 35.046414 -106.616287 309 5324ft 2kts
26-Dec-17 09:30 35.046318 -106.615926 268 5324ft 0kts
26-Dec-17 09:31 35.046318 -106.615926 269 5324ft 0kts
26-Dec-17 09:32 35.046318 -106.615926 269 5324ft 0kts
26-Dec-17 09:33 35.046318 -106.615926 269 5324ft 0kts
26-Dec-17 09:34 35.046323 -106.616935 270 5324ft 11kts
26-Dec-17 09:35 35.045514 -106.621224 235 5324ft 9kts
26-Dec-17 09:36 35.045176 -106.621366 181 5324ft 0kts
26-Dec-17 09:37 35.045020 -106.621371 181 5324ft 0kts
26-Dec-17 09:38 35.045136 -106.621368 180 5324ft 1kts
26-Dec-17 09:39 35.044370 -106.621100 97 5324ft 5kts
26-Dec-17 09:40 35.044003 -106.594949 90 5603ft 173kts
26-Dec-17 09:41 35.045816 -106.529926 47 8616ft 191kts
26-Dec-17 09:42 35.076197 -106.547726 278 11118ft 195kts
26-Dec-17 09:43 35.081202 -106.619185 276 13534ft 220kts
26-Dec-17 09:44 35.086528 -106.691756 276 16276ft 232kts
26-Dec-17 09:45 35.094449 -106.778595 281 17760ft 285kts
26-Dec-17 09:46 35.105825 -106.853674 280 18692ft 319kts
26-Dec-17 09:47 35.098614 -106.965074 258 20329ft 343kts
26-Dec-17 09:48 35.075635 -107.078981 258 22248ft 348kts
26-Dec-17 09:49 35.052433 -107.193885 259 24000ft 353kts
26-Dec-17 09:50 35.036224 -107.310203 269 25544ft 354kts
26-Dec-17 09:51 35.032471 -107.431173 268 26948ft 359kts
26-Dec-17 09:52 35.028540 -107.553388 268 28199ft 364kts
26-Dec-17 09:53 35.024560 -107.673567 268 29297ft 368kts
26-Dec-17 09:54 35.020294 -107.798636 268 30381ft 373kts
26-Dec-17 09:55 35.015868 -107.924372 268 31628ft 369kts
26-Dec-17 09:56 35.011800 -108.036819 268 32767ft 364kts
26-Dec-17 09:57 35.007859 -108.143326 267 33710ft 361kts
26-Dec-17 09:58 35.003231 -108.265296 267 34592ft 360kts
26-Dec-17 09:59 34.998536 -108.385891 267 35341ft 360kts
26-Dec-17 10:00 34.993662 -108.507865 267 36011ft 360kts
26-Dec-17 10:01 34.988682 -108.629422 267 36314ft 359kts
26-Dec-17 10:02 34.983924 -108.742882 267 36313ft 360kts
26-Dec-17 10:03 34.978683 -108.865079 267 36308ft 361kts
26-Dec-17 10:04 34.973316 -108.987287 267 36295ft 362kts
26-Dec-17 10:05 34.967813 -109.109786 266 36269ft 364kts
26-Dec-17 10:06 34.938895 -109.228625 249 36260ft 373kts
26-Dec-17 10:07 34.897380 -109.342288 248 36267ft 379kts
26-Dec-17 10:08 34.855864 -109.455716 248 36300ft 386kts
26-Dec-17 10:09 34.812043 -109.575018 248 36353ft 389kts
26-Dec-17 10:10 34.778485 -109.666047 247 36363ft 389kts
26-Dec-17 10:11 34.734993 -109.783594 247 36363ft 389kts
26-Dec-17 10:12 34.690529 -109.903362 247 36227ft 387kts
26-Dec-17 10:13 34.646826 -110.020720 247 35086ft 384kts
26-Dec-17 10:14 34.602311 -110.139873 247 34021ft 388kts
26-Dec-17 10:15 34.557586 -110.259112 247 33079ft 391kts
26-Dec-17 10:16 34.512434 -110.379047 247 32243ft 393kts
26-Dec-17 10:17 34.468535 -110.495107 248 31514ft 371kts
26-Dec-17 10:18 34.425721 -110.607993 248 30503ft 367kts
26-Dec-17 10:19 34.386588 -110.710823 247 29643ft 363kts
26-Dec-17 10:20 34.343468 -110.820652 237 28976ft 364kts
26-Dec-17 10:21 34.270419 -110.905025 231 26545ft 352kts
26-Dec-17 10:22 34.207810 -110.984815 231 24773ft 321kts
26-Dec-17 10:23 34.148181 -111.061554 231 23354ft 316kts
26-Dec-17 10:24 34.090826 -111.135233 231 22062ft 301kts
26-Dec-17 10:25 34.034092 -111.208055 231 20572ft 295kts
26-Dec-17 10:26 33.978258 -111.279559 231 19100ft 290kts
26-Dec-17 10:27 33.923751 -111.349233 231 17608ft 286kts
26-Dec-17 10:28 33.874584 -111.415455 242 16617ft 271kts
26-Dec-17 10:29 33.835386 -111.490414 241 15307ft 261kts
26-Dec-17 10:30 33.796949 -111.563577 241 14094ft 256kts
26-Dec-17 10:31 33.758111 -111.636638 241 12958ft 260kts
26-Dec-17 10:32 33.720872 -111.706399 240 12106ft 248kts
26-Dec-17 10:33 33.685444 -111.772891 242 11301ft 231kts
26-Dec-17 10:34 33.651155 -111.837582 242 10282ft 232kts
26-Dec-17 10:35 33.616434 -111.902927 242 9696ft 234kts
26-Dec-17 10:36 33.582044 -111.967528 241 8652ft 234kts
26-Dec-17 10:37 33.546810 -112.033609 241 7582ft 236kts
26-Dec-17 10:38 33.525394 -112.104733 273 6981ft 230kts
26-Dec-17 10:39 33.524500 -112.180450 269 6976ft 227kts
26-Dec-17 10:40 33.519371 -112.257319 269 6981ft 229kts
26-Dec-17 10:41 33.512163 -112.332494 244 6955ft 232kts
26-Dec-17 10:42 33.451127 -112.340633 141 5370ft 257kts
26-Dec-17 10:43 33.428040 -112.268884 83 4039ft 223kts
26-Dec-17 10:44 33.429141 -112.198879 88 3862ft 201kts
26-Dec-17 10:45 33.429009 -112.133153 88 2831ft 187kts
26-Dec-17 10:46 33.429333 -112.079455 90 1985ft 139kts
26-Dec-17 10:47 33.428878 -112.036421 91 1308ft 131kts
26-Dec-17 10:48 33.429106 -112.008312 64 1123ft 32kts
26-Dec-17 10:49 33.430217 -112.006339 26 1125ft 10kts
26-Dec-17 10:50 33.432076 -112.006620 289 1128ft 0kts
26-Dec-17 10:51 33.432689 -112.007694 318 1130ft 6kts
26-Dec-17 10:52 33.432890 -112.011246 269 1128ft 13kts
26-Dec-17 10:53 33.434233 -112.012647 274 1126ft 4kts
26-Dec-17 10:54 33.434391 -112.013289 288 1125ft 0kts

Navigation Log

Ident Type
Flight plan parsing failed, navigation log unavailable